Hollenthal, Germany

02:39 AM CET die 18o January, anno 2017 (GMT +0100)
Pünderich | | Change Station

Elev 0 ft 50.04 °N, 7.13 °E | Updated 1 minute ago

Partialiter Nubila
Partialiter Nubila
18.7 °F
Feels Like 19 °F
N
1.9
Ventus Variabilis Ventus from Inter Austrum et Zephyrum
Gusts 3.7 mph

Hodie
High -- | Low -- °F
--% Chance of Precip.
Yesterday
High -- | Low -- °F
Precip. -- in
Pressio 30.51 in
Visibilitas -9999.0 milia passuum
Clouds
Frigus Venti 19 °F
Frigus in quo Ros apparet 17 °F
Umor 94%
Rainfall 0.00 in
Snow Depth Not available.
8:21 AM 5:02 PM
Waning Gibbous, 68% visible
METAR EDFH 180120Z 10007KT CAVOK M07/M10 Q1033
Pressio 30.51 in
Visibilitas -9999.0 milia passuum
Clouds
Frigus Venti 19 °F
Frigus in quo Ros apparet 17 °F
Umor 94%
Rainfall 0.00 in
Snow Depth Not available.
8:21 AM 5:02 PM
Waning Gibbous, 68% visible
METAR EDFH 180120Z 10007KT CAVOK M07/M10 Q1033

Get Your Daily Forecast Email!

Thanks for signing up!

Be on the lookout for a verification email in your inbox.

You'll start receiving the daily forecast at 8 AM.

×

10-Day Weather Forecast

×

Almanac

Astronomy

Jan. 18, 2017 Rise Set
Actual Time
Civil Twilight
Nautical Twilight
Astronomical Twilight
Moon
Length Of Visible Light
Length of Day
Tomorrow will be .
, % of the Moon is Illuminated

Today's Extremes

Country Highs Country Lows

Community

WunderPhotos

Upload Photos

1,962,540 photos uploaded!

WunderBlog® & News

Nearby

Air Quality

  Air Quality AQ Index Pollutant
Not available.

Snow Depth

Station Depth Elevation

Earthquake Activity

City Distance Mag. Time & Date
Minimum magnitude displayed is 2.5.

Coastal Water Temperatures

Locus Calor

Stations

Nearby Weather Stations

Station Location Temp Frigus Venti Frigus in quo Ros apparet Umor Ventus Precip. Elev Renovata Type